sensor_id;sensor_type;location;lat;lon;timestamp;pressure;altitude;pressure_sealevel;temperature;humidity
9676;BME280;4876;42.656;23.292;2024-03-22T00:00:42;94428.13;;;6.88;44.75
9676;BME280;4876;42.656;23.292;2024-03-22T00:03:07;94432.94;;;6.87;43.86
9676;BME280;4876;42.656;23.292;2024-03-22T00:05:33;94430.19;;;6.87;45.17
9676;BME280;4876;42.656;23.292;2024-03-22T00:07:58;94428.00;;;6.86;45.37
9676;BME280;4876;42.656;23.292;2024-03-22T00:10:24;94428.72;;;6.86;44.84
9676;BME280;4876;42.656;23.292;2024-03-22T00:12:49;94432.78;;;6.85;45.91
9676;BME280;4876;42.656;23.292;2024-03-22T00:15:15;94427.84;;;6.84;44.44
9676;BME280;4876;42.656;23.292;2024-03-22T00:17:43;94433.66;;;6.88;45.09
9676;BME280;4876;42.656;23.292;2024-03-22T00:20:09;94430.00;;;6.85;45.76
9676;BME280;4876;42.656;23.292;2024-03-22T00:22:34;94425.22;;;6.76;45.21
9676;BME280;4876;42.656;23.292;2024-03-22T00:25:00;94416.94;;;6.76;44.61
9676;BME280;4876;42.656;23.292;2024-03-22T00:27:25;94433.34;;;6.74;44.70
9676;BME280;4876;42.656;23.292;2024-03-22T00:29:51;94428.53;;;6.74;44.76
9676;BME280;4876;42.656;23.292;2024-03-22T00:32:16;94421.66;;;6.56;46.04
9676;BME280;4876;42.656;23.292;2024-03-22T00:34:42;94426.53;;;6.48;45.85
9676;BME280;4876;42.656;23.292;2024-03-22T00:37:08;94432.31;;;6.43;46.18
9676;BME280;4876;42.656;23.292;2024-03-22T00:39:33;94434.13;;;6.48;46.75
9676;BME280;4876;42.656;23.292;2024-03-22T00:41:59;94437.41;;;6.46;46.87
9676;BME280;4876;42.656;23.292;2024-03-22T00:44:24;94439.44;;;6.46;46.78
9676;BME280;4876;42.656;23.292;2024-03-22T00:46:50;94438.41;;;6.41;46.58
9676;BME280;4876;42.656;23.292;2024-03-22T00:49:15;94436.91;;;6.31;46.98
9676;BME280;4876;42.656;23.292;2024-03-22T00:51:41;94431.66;;;6.25;47.34
9676;BME280;4876;42.656;23.292;2024-03-22T00:54:09;94435.56;;;6.22;47.68
9676;BME280;4876;42.656;23.292;2024-03-22T00:56:34;94419.72;;;6.13;47.11
9676;BME280;4876;42.656;23.292;2024-03-22T00:59:00;94424.41;;;6.20;47.59
9676;BME280;4876;42.656;23.292;2024-03-22T01:01:25;94427.28;;;6.22;47.84
9676;BME280;4876;42.656;23.292;2024-03-22T01:03:51;94424.41;;;6.20;48.34
9676;BME280;4876;42.656;23.292;2024-03-22T01:06:16;94431.03;;;6.17;48.03
9676;BME280;4876;42.656;23.292;2024-03-22T01:08:47;94432.06;;;6.22;47.93
9676;BME280;4876;42.656;23.292;2024-03-22T01:11:13;94438.00;;;6.18;47.67
9676;BME280;4876;42.656;23.292;2024-03-22T01:13:38;94430.75;;;6.13;46.70
9676;BME280;4876;42.656;23.292;2024-03-22T01:16:04;94433.16;;;6.09;48.06
9676;BME280;4876;42.656;23.292;2024-03-22T01:18:30;94430.13;;;6.05;47.36
9676;BME280;4876;42.656;23.292;2024-03-22T01:20:55;94434.16;;;6.04;46.77
9676;BME280;4876;42.656;23.292;2024-03-22T01:23:21;94430.78;;;5.96;47.87
9676;BME280;4876;42.656;23.292;2024-03-22T01:25:46;94428.69;;;5.87;46.97
9676;BME280;4876;42.656;23.292;2024-03-22T01:28:12;94434.34;;;5.89;47.40
9676;BME280;4876;42.656;23.292;2024-03-22T01:30:37;94433.28;;;5.84;48.41
9676;BME280;4876;42.656;23.292;2024-03-22T01:33:03;94434.81;;;5.78;47.71
9676;BME280;4876;42.656;23.292;2024-03-22T01:35:28;94430.00;;;5.51;48.86
9676;BME280;4876;42.656;23.292;2024-03-22T01:37:54;94435.00;;;5.63;47.97
9676;BME280;4876;42.656;23.292;2024-03-22T01:40:19;94428.47;;;5.58;48.19
9676;BME280;4876;42.656;23.292;2024-03-22T01:42:45;94428.78;;;5.62;48.58
9676;BME280;4876;42.656;23.292;2024-03-22T01:45:13;94420.22;;;5.58;48.29
9676;BME280;4876;42.656;23.292;2024-03-22T01:47:40;94416.09;;;5.49;46.98
9676;BME280;4876;42.656;23.292;2024-03-22T01:50:06;94419.91;;;5.37;48.67
9676;BME280;4876;42.656;23.292;2024-03-22T01:52:32;94423.63;;;5.32;49.06
9676;BME280;4876;42.656;23.292;2024-03-22T01:54:58;94422.47;;;5.35;49.21
9676;BME280;4876;42.656;23.292;2024-03-22T01:57:24;94423.69;;;5.24;48.52
9676;BME280;4876;42.656;23.292;2024-03-22T01:59:53;94423.13;;;5.26;49.45
9676;BME280;4876;42.656;23.292;2024-03-22T02:02:20;94419.00;;;5.34;48.42
9676;BME280;4876;42.656;23.292;2024-03-22T02:04:46;94416.06;;;4.31;51.95
9676;BME280;4876;42.656;23.292;2024-03-22T02:07:15;94417.03;;;4.51;51.21
9676;BME280;4876;42.656;23.292;2024-03-22T02:09:40;94424.44;;;4.83;49.76
9676;BME280;4876;42.656;23.292;2024-03-22T02:12:06;94420.91;;;4.90;49.75
9676;BME280;4876;42.656;23.292;2024-03-22T02:14:31;94417.75;;;4.93;50.09
9676;BME280;4876;42.656;23.292;2024-03-22T02:16:57;94410.03;;;5.00;50.56
9676;BME280;4876;42.656;23.292;2024-03-22T02:19:22;94413.66;;;5.02;51.05
9676;BME280;4876;42.656;23.292;2024-03-22T02:21:48;94419.81;;;5.10;50.91
9676;BME280;4876;42.656;23.292;2024-03-22T02:24:13;94420.69;;;5.13;51.01
9676;BME280;4876;42.656;23.292;2024-03-22T02:26:39;94420.31;;;5.16;50.76
9676;BME280;4876;42.656;23.292;2024-03-22T02:29:04;94428.47;;;5.24;50.95
9676;BME280;4876;42.656;23.292;2024-03-22T02:31:30;94433.06;;;5.38;50.20
9676;BME280;4876;42.656;23.292;2024-03-22T02:33:55;94433.31;;;5.33;49.79
9676;BME280;4876;42.656;23.292;2024-03-22T02:36:21;94432.75;;;5.34;49.35
9676;BME280;4876;42.656;23.292;2024-03-22T02:38:46;94436.56;;;5.39;49.17
9676;BME280;4876;42.656;23.292;2024-03-22T02:41:12;94439.69;;;5.35;50.13
9676;BME280;4876;42.656;23.292;2024-03-22T02:43:37;94431.94;;;5.41;49.54
9676;BME280;4876;42.656;23.292;2024-03-22T02:46:03;94438.72;;;5.40;49.63
9676;BME280;4876;42.656;23.292;2024-03-22T02:48:28;94437.38;;;4.90;50.83
9676;BME280;4876;42.656;23.292;2024-03-22T02:50:57;94444.56;;;4.68;51.69
9676;BME280;4876;42.656;23.292;2024-03-22T02:53:23;94438.16;;;4.66;52.36
9676;BME280;4876;42.656;23.292;2024-03-22T02:55:48;94441.19;;;4.53;52.25
9676;BME280;4876;42.656;23.292;2024-03-22T02:58:14;94452.84;;;4.61;52.97
9676;BME280;4876;42.656;23.292;2024-03-22T03:00:39;94456.44;;;4.71;52.40
9676;BME280;4876;42.656;23.292;2024-03-22T03:03:06;94451.09;;;4.73;52.67
9676;BME280;4876;42.656;23.292;2024-03-22T03:05:32;94460.56;;;4.79;53.08
9676;BME280;4876;42.656;23.292;2024-03-22T03:07:57;94456.53;;;4.80;52.98
9676;BME280;4876;42.656;23.292;2024-03-22T03:10:23;94453.78;;;4.80;53.22
9676;BME280;4876;42.656;23.292;2024-03-22T03:12:49;94467.81;;;4.92;51.28
9676;BME280;4876;42.656;23.292;2024-03-22T03:15:15;94463.31;;;4.79;51.48
9676;BME280;4876;42.656;23.292;2024-03-22T03:17:41;94466.22;;;4.57;52.51
9676;BME280;4876;42.656;23.292;2024-03-22T03:20:07;94462.59;;;4.54;53.01
9676;BME280;4876;42.656;23.292;2024-03-22T03:22:34;94466.63;;;4.53;53.34
9676;BME280;4876;42.656;23.292;2024-03-22T03:25:00;94471.22;;;4.51;53.56
9676;BME280;4876;42.656;23.292;2024-03-22T03:27:25;94461.19;;;4.46;53.55
9676;BME280;4876;42.656;23.292;2024-03-22T03:29:51;94467.69;;;4.58;52.79
9676;BME280;4876;42.656;23.292;2024-03-22T03:32:16;94474.25;;;4.62;52.89
9676;BME280;4876;42.656;23.292;2024-03-22T03:34:42;94478.44;;;4.39;53.40
9676;BME280;4876;42.656;23.292;2024-03-22T03:37:07;94478.31;;;4.29;54.55
9676;BME280;4876;42.656;23.292;2024-03-22T03:39:33;94478.97;;;4.12;54.87
9676;BME280;4876;42.656;23.292;2024-03-22T03:41:58;94474.28;;;3.90;55.67
9676;BME280;4876;42.656;23.292;2024-03-22T03:44:24;94470.84;;;3.90;56.19
9676;BME280;4876;42.656;23.292;2024-03-22T03:46:49;94477.44;;;3.87;56.18
9676;BME280;4876;42.656;23.292;2024-03-22T03:49:15;94481.78;;;3.97;55.38
9676;BME280;4876;42.656;23.292;2024-03-22T03:51:40;94483.53;;;4.10;55.02
9676;BME280;4876;42.656;23.292;2024-03-22T03:54:06;94491.41;;;4.06;55.06
9676;BME280;4876;42.656;23.292;2024-03-22T03:56:31;94491.56;;;3.76;55.70
9676;BME280;4876;42.656;23.292;2024-03-22T03:58:57;94495.84;;;3.46;57.71
9676;BME280;4876;42.656;23.292;2024-03-22T04:01:22;94494.78;;;3.34;58.07
9676;BME280;4876;42.656;23.292;2024-03-22T04:03:48;94495.16;;;3.31;58.42
9676;BME280;4876;42.656;23.292;2024-03-22T04:06:14;94488.78;;;3.21;58.84
9676;BME280;4876;42.656;23.292;2024-03-22T04:08:39;94501.00;;;3.27;58.69
9676;BME280;4876;42.656;23.292;2024-03-22T04:11:05;94503.94;;;3.14;59.70
9676;BME280;4876;42.656;23.292;2024-03-22T04:13:30;94498.84;;;3.18;59.63
9676;BME280;4876;42.656;23.292;2024-03-22T04:15:58;94504.31;;;3.26;59.88
9676;BME280;4876;42.656;23.292;2024-03-22T04:18:24;94505.03;;;3.34;59.58
9676;BME280;4876;42.656;23.292;2024-03-22T04:20:57;94506.81;;;3.46;59.39
9676;BME280;4876;42.656;23.292;2024-03-22T04:23:23;94508.44;;;3.57;59.17
9676;BME280;4876;42.656;23.292;2024-03-22T04:25:56;94514.63;;;3.65;59.05
9676;BME280;4876;42.656;23.292;2024-03-22T04:28:24;94511.13;;;3.72;58.46
9676;BME280;4876;42.656;23.292;2024-03-22T04:33:24;94513.63;;;3.85;57.60
9676;BME280;4876;42.656;23.292;2024-03-22T04:35:50;94509.59;;;3.94;57.95
9676;BME280;4876;42.656;23.292;2024-03-22T04:38:16;94521.00;;;4.55;57.09
9676;BME280;4876;42.656;23.292;2024-03-22T04:40:43;94522.25;;;5.52;54.42
9676;BME280;4876;42.656;23.292;2024-03-22T04:43:08;94521.59;;;6.57;50.11
9676;BME280;4876;42.656;23.292;2024-03-22T04:45:34;94525.13;;;7.59;46.50
9676;BME280;4876;42.656;23.292;2024-03-22T04:48:01;94532.31;;;8.38;44.31
9676;BME280;4876;42.656;23.292;2024-03-22T04:50:27;94537.19;;;9.18;42.35
9676;BME280;4876;42.656;23.292;2024-03-22T04:52:53;94533.88;;;10.14;40.11
9676;BME280;4876;42.656;23.292;2024-03-22T04:55:19;94534.75;;;11.05;38.34
9676;BME280;4876;42.656;23.292;2024-03-22T04:57:44;94541.16;;;11.89;36.37
9676;BME280;4876;42.656;23.292;2024-03-22T05:00:10;94536.81;;;12.60;35.44
9676;BME280;4876;42.656;23.292;2024-03-22T05:02:36;94532.78;;;12.88;34.05
9676;BME280;4876;42.656;23.292;2024-03-22T05:05:01;94541.59;;;12.96;35.13
9676;BME280;4876;42.656;23.292;2024-03-22T05:07:27;94540.34;;;12.60;35.37
9676;BME280;4876;42.656;23.292;2024-03-22T05:09:52;94542.94;;;12.08;36.30
9676;BME280;4876;42.656;23.292;2024-03-22T05:12:18;94533.19;;;11.14;37.66
9676;BME280;4876;42.656;23.292;2024-03-22T05:14:43;94544.50;;;10.18;40.30
9676;BME280;4876;42.656;23.292;2024-03-22T05:17:09;94550.28;;;9.79;43.06
9676;BME280;4876;42.656;23.292;2024-03-22T05:19:34;94544.22;;;9.41;42.61
9676;BME280;4876;42.656;23.292;2024-03-22T05:22:00;94556.59;;;8.30;44.67
9676;BME280;4876;42.656;23.292;2024-03-22T05:24:26;94553.53;;;8.36;45.92
9676;BME280;4876;42.656;23.292;2024-03-22T05:26:52;94552.47;;;8.79;44.80
9676;BME280;4876;42.656;23.292;2024-03-22T05:29:18;94557.69;;;7.70;46.47
9676;BME280;4876;42.656;23.292;2024-03-22T05:31:48;94555.28;;;8.22;45.87
9676;BME280;4876;42.656;23.292;2024-03-22T05:34:16;94559.63;;;8.63;45.81
9676;BME280;4876;42.656;23.292;2024-03-22T05:36:42;94559.72;;;9.24;43.58
9676;BME280;4876;42.656;23.292;2024-03-22T05:39:08;94563.75;;;9.43;43.07
9676;BME280;4876;42.656;23.292;2024-03-22T05:41:35;94557.06;;;9.05;44.00
9676;BME280;4876;42.656;23.292;2024-03-22T05:44:01;94565.19;;;9.44;43.04
9676;BME280;4876;42.656;23.292;2024-03-22T05:46:26;94560.03;;;9.29;43.01
9676;BME280;4876;42.656;23.292;2024-03-22T05:48:52;94575.25;;;9.08;44.39
9676;BME280;4876;42.656;23.292;2024-03-22T05:51:17;94575.16;;;8.87;43.71
9676;BME280;4876;42.656;23.292;2024-03-22T05:53:43;94571.72;;;8.58;43.41
9676;BME280;4876;42.656;23.292;2024-03-22T05:56:09;94571.25;;;7.94;43.83
9676;BME280;4876;42.656;23.292;2024-03-22T05:58:35;94578.81;;;7.84;44.62
9676;BME280;4876;42.656;23.292;2024-03-22T06:01:02;94578.16;;;7.48;44.89
9676;BME280;4876;42.656;23.292;2024-03-22T06:03:29;94581.34;;;7.54;45.18
9676;BME280;4876;42.656;23.292;2024-03-22T06:05:54;94576.34;;;7.79;43.39
9676;BME280;4876;42.656;23.292;2024-03-22T06:08:26;94576.38;;;8.08;44.78
9676;BME280;4876;42.656;23.292;2024-03-22T06:10:55;94578.69;;;7.92;43.19
9676;BME280;4876;42.656;23.292;2024-03-22T06:13:24;94578.44;;;7.52;44.48
9676;BME280;4876;42.656;23.292;2024-03-22T06:15:50;94585.81;;;8.05;44.37
9676;BME280;4876;42.656;23.292;2024-03-22T06:18:16;94580.00;;;8.20;43.80
9676;BME280;4876;42.656;23.292;2024-03-22T06:20:42;94587.31;;;7.50;43.61
9676;BME280;4876;42.656;23.292;2024-03-22T06:23:09;94587.69;;;7.92;42.19
9676;BME280;4876;42.656;23.292;2024-03-22T06:25:34;94580.97;;;7.86;43.12
9676;BME280;4876;42.656;23.292;2024-03-22T06:28:00;94580.84;;;7.93;42.39
9676;BME280;4876;42.656;23.292;2024-03-22T06:30:26;94579.41;;;7.92;42.21
9676;BME280;4876;42.656;23.292;2024-03-22T06:32:52;94581.13;;;7.88;42.52
9676;BME280;4876;42.656;23.292;2024-03-22T06:35:18;94590.88;;;7.98;44.61
9676;BME280;4876;42.656;23.292;2024-03-22T06:37:44;94583.19;;;7.87;43.36
9676;BME280;4876;42.656;23.292;2024-03-22T06:40:10;94581.88;;;7.98;43.61
9676;BME280;4876;42.656;23.292;2024-03-22T06:42:35;94593.94;;;8.02;44.01
9676;BME280;4876;42.656;23.292;2024-03-22T06:45:02;94593.72;;;8.37;43.74
9676;BME280;4876;42.656;23.292;2024-03-22T06:47:28;94597.13;;;7.89;43.83
9676;BME280;4876;42.656;23.292;2024-03-22T06:49:53;94587.00;;;8.49;42.20
9676;BME280;4876;42.656;23.292;2024-03-22T06:52:19;94596.56;;;8.77;42.73
9676;BME280;4876;42.656;23.292;2024-03-22T06:54:46;94601.25;;;8.46;42.32
9676;BME280;4876;42.656;23.292;2024-03-22T06:57:11;94603.16;;;8.53;42.89
9676;BME280;4876;42.656;23.292;2024-03-22T06:59:37;94597.34;;;8.58;42.75
9676;BME280;4876;42.656;23.292;2024-03-22T07:02:03;94604.59;;;8.54;41.80
9676;BME280;4876;42.656;23.292;2024-03-22T07:04:28;94612.00;;;8.23;42.00
9676;BME280;4876;42.656;23.292;2024-03-22T07:06:54;94605.94;;;8.53;42.73
9676;BME280;4876;42.656;23.292;2024-03-22T07:09:19;94602.91;;;9.08;41.63
9676;BME280;4876;42.656;23.292;2024-03-22T07:11:46;94607.97;;;9.21;41.72
9676;BME280;4876;42.656;23.292;2024-03-22T07:14:11;94602.53;;;8.93;41.11
9676;BME280;4876;42.656;23.292;2024-03-22T07:16:37;94601.34;;;8.86;41.09
9676;BME280;4876;42.656;23.292;2024-03-22T07:19:03;94603.88;;;8.63;39.96
9676;BME280;4876;42.656;23.292;2024-03-22T07:21:29;94605.84;;;8.91;40.77
9676;BME280;4876;42.656;23.292;2024-03-22T07:23:55;94601.78;;;8.83;40.59
9676;BME280;4876;42.656;23.292;2024-03-22T07:26:21;94600.16;;;9.08;40.58
9676;BME280;4876;42.656;23.292;2024-03-22T07:28:46;94603.53;;;9.38;40.83
9676;BME280;4876;42.656;23.292;2024-03-22T07:31:12;94606.94;;;9.27;39.67
9676;BME280;4876;42.656;23.292;2024-03-22T07:33:39;94610.38;;;8.96;39.82
9676;BME280;4876;42.656;23.292;2024-03-22T07:36:05;94600.53;;;8.74;41.02
9676;BME280;4876;42.656;23.292;2024-03-22T07:38:31;94607.19;;;8.81;41.16
9676;BME280;4876;42.656;23.292;2024-03-22T07:40:57;94606.91;;;8.67;41.10
9676;BME280;4876;42.656;23.292;2024-03-22T07:43:23;94602.81;;;8.78;41.65
9676;BME280;4876;42.656;23.292;2024-03-22T07:45:48;94604.97;;;8.98;41.39
9676;BME280;4876;42.656;23.292;2024-03-22T07:48:14;94611.00;;;9.26;41.78
9676;BME280;4876;42.656;23.292;2024-03-22T07:50:40;94611.09;;;9.47;40.78
9676;BME280;4876;42.656;23.292;2024-03-22T07:53:05;94613.81;;;9.56;42.07
9676;BME280;4876;42.656;23.292;2024-03-22T07:55:31;94608.41;;;9.58;40.58
9676;BME280;4876;42.656;23.292;2024-03-22T07:57:56;94612.91;;;9.23;40.92
9676;BME280;4876;42.656;23.292;2024-03-22T08:00:23;94612.75;;;9.31;42.46
9676;BME280;4876;42.656;23.292;2024-03-22T08:02:51;94614.34;;;9.34;40.88
9676;BME280;4876;42.656;23.292;2024-03-22T08:05:16;94622.09;;;9.66;41.31
9676;BME280;4876;42.656;23.292;2024-03-22T08:07:42;94621.22;;;9.63;40.98
9676;BME280;4876;42.656;23.292;2024-03-22T08:10:09;94622.22;;;9.68;40.48
9676;BME280;4876;42.656;23.292;2024-03-22T08:12:35;94624.34;;;9.79;40.26
9676;BME280;4876;42.656;23.292;2024-03-22T08:15:00;94612.78;;;9.82;39.73
9676;BME280;4876;42.656;23.292;2024-03-22T08:17:26;94613.16;;;9.98;40.62
9676;BME280;4876;42.656;23.292;2024-03-22T08:19:51;94618.25;;;10.02;39.55
9676;BME280;4876;42.656;23.292;2024-03-22T08:22:17;94607.47;;;9.96;40.14
9676;BME280;4876;42.656;23.292;2024-03-22T08:24:43;94615.28;;;10.09;40.09
9676;BME280;4876;42.656;23.292;2024-03-22T08:27:08;94601.28;;;9.86;39.59
9676;BME280;4876;42.656;23.292;2024-03-22T08:29:34;94605.66;;;10.10;40.06
9676;BME280;4876;42.656;23.292;2024-03-22T08:31:59;94610.97;;;9.97;39.05
9676;BME280;4876;42.656;23.292;2024-03-22T08:34:25;94611.22;;;9.79;39.28
9676;BME280;4876;42.656;23.292;2024-03-22T08:36:50;94607.41;;;9.84;40.16
9676;BME280;4876;42.656;23.292;2024-03-22T08:39:16;94611.94;;;9.80;39.81
9676;BME280;4876;42.656;23.292;2024-03-22T08:41:42;94603.47;;;10.30;39.26
9676;BME280;4876;42.656;23.292;2024-03-22T08:44:07;94603.84;;;10.24;38.54
9676;BME280;4876;42.656;23.292;2024-03-22T08:46:33;94615.38;;;10.21;37.91
9676;BME280;4876;42.656;23.292;2024-03-22T08:48:58;94622.38;;;10.22;38.03
9676;BME280;4876;42.656;23.292;2024-03-22T08:51:24;94613.25;;;10.31;37.47
9676;BME280;4876;42.656;23.292;2024-03-22T08:53:50;94615.25;;;10.73;37.66
9676;BME280;4876;42.656;23.292;2024-03-22T08:56:15;94613.13;;;10.83;37.32
9676;BME280;4876;42.656;23.292;2024-03-22T08:58:41;94605.19;;;10.89;36.11
9676;BME280;4876;42.656;23.292;2024-03-22T09:01:07;94611.47;;;10.14;37.07
9676;BME280;4876;42.656;23.292;2024-03-22T09:03:36;94612.19;;;10.15;37.45
9676;BME280;4876;42.656;23.292;2024-03-22T09:06:01;94600.91;;;10.22;37.26
9676;BME280;4876;42.656;23.292;2024-03-22T09:08:28;94599.84;;;10.49;37.47
9676;BME280;4876;42.656;23.292;2024-03-22T09:10:54;94608.38;;;10.41;37.10
9676;BME280;4876;42.656;23.292;2024-03-22T09:13:20;94607.03;;;10.00;37.72
9676;BME280;4876;42.656;23.292;2024-03-22T09:15:45;94594.13;;;10.35;37.33
9676;BME280;4876;42.656;23.292;2024-03-22T09:18:11;94602.16;;;10.52;36.52
9676;BME280;4876;42.656;23.292;2024-03-22T09:20:36;94593.78;;;10.40;37.64
9676;BME280;4876;42.656;23.292;2024-03-22T09:23:02;94599.06;;;10.36;37.06
9676;BME280;4876;42.656;23.292;2024-03-22T09:25:29;94595.22;;;9.99;37.21
9676;BME280;4876;42.656;23.292;2024-03-22T09:27:54;94584.41;;;10.03;37.47
9676;BME280;4876;42.656;23.292;2024-03-22T09:30:20;94589.47;;;10.49;37.26
9676;BME280;4876;42.656;23.292;2024-03-22T09:32:47;94580.31;;;10.47;35.98
9676;BME280;4876;42.656;23.292;2024-03-22T09:35:12;94583.03;;;10.68;37.20
9676;BME280;4876;42.656;23.292;2024-03-22T09:37:43;94585.03;;;10.88;35.62
9676;BME280;4876;42.656;23.292;2024-03-22T09:40:09;94590.56;;;10.77;36.16
9676;BME280;4876;42.656;23.292;2024-03-22T09:42:37;94589.78;;;10.65;35.96
9676;BME280;4876;42.656;23.292;2024-03-22T09:45:08;94583.44;;;10.85;35.50
9676;BME280;4876;42.656;23.292;2024-03-22T09:47:34;94577.25;;;11.20;36.02
9676;BME280;4876;42.656;23.292;2024-03-22T09:50:01;94579.47;;;11.56;35.31
9676;BME280;4876;42.656;23.292;2024-03-22T09:52:28;94583.34;;;11.86;34.47
9676;BME280;4876;42.656;23.292;2024-03-22T09:54:53;94585.63;;;11.66;34.90
9676;BME280;4876;42.656;23.292;2024-03-22T09:57:21;94596.28;;;11.02;35.68
9676;BME280;4876;42.656;23.292;2024-03-22T09:59:47;94582.78;;;11.08;35.69
9676;BME280;4876;42.656;23.292;2024-03-22T10:02:13;94576.44;;;11.40;35.23
9676;BME280;4876;42.656;23.292;2024-03-22T10:04:42;94576.31;;;11.38;35.85
9676;BME280;4876;42.656;23.292;2024-03-22T10:07:08;94577.16;;;11.52;35.04
9676;BME280;4876;42.656;23.292;2024-03-22T10:09:35;94574.88;;;11.84;35.24
9676;BME280;4876;42.656;23.292;2024-03-22T10:12:01;94570.25;;;12.11;34.08
9676;BME280;4876;42.656;23.292;2024-03-22T10:14:29;94571.38;;;11.60;34.75
9676;BME280;4876;42.656;23.292;2024-03-22T10:16:55;94577.38;;;11.22;34.71
9676;BME280;4876;42.656;23.292;2024-03-22T10:19:20;94562.66;;;11.31;34.99
9676;BME280;4876;42.656;23.292;2024-03-22T10:21:47;94567.84;;;11.59;35.48
9676;BME280;4876;42.656;23.292;2024-03-22T10:24:14;94571.00;;;11.42;34.55
9676;BME280;4876;42.656;23.292;2024-03-22T10:26:39;94558.81;;;11.47;34.75
9676;BME280;4876;42.656;23.292;2024-03-22T10:29:08;94556.03;;;11.71;34.91
9676;BME280;4876;42.656;23.292;2024-03-22T10:31:35;94569.69;;;11.66;34.45
9676;BME280;4876;42.656;23.292;2024-03-22T10:34:02;94570.16;;;11.40;34.90
9676;BME280;4876;42.656;23.292;2024-03-22T10:36:31;94554.94;;;11.41;35.04
9676;BME280;4876;42.656;23.292;2024-03-22T10:38:58;94541.41;;;11.58;34.67
9676;BME280;4876;42.656;23.292;2024-03-22T10:41:25;94555.19;;;11.68;34.65
9676;BME280;4876;42.656;23.292;2024-03-22T10:43:51;94546.97;;;11.47;35.07
9676;BME280;4876;42.656;23.292;2024-03-22T10:46:20;94546.34;;;11.83;35.09
9676;BME280;4876;42.656;23.292;2024-03-22T10:48:46;94542.50;;;11.53;33.17
9676;BME280;4876;42.656;23.292;2024-03-22T10:51:13;94542.63;;;11.79;33.83
9676;BME280;4876;42.656;23.292;2024-03-22T10:53:40;94540.41;;;12.00;33.67
9676;BME280;4876;42.656;23.292;2024-03-22T10:56:07;94532.09;;;12.00;32.94
9676;BME280;4876;42.656;23.292;2024-03-22T10:58:39;94528.03;;;12.15;33.17
9676;BME280;4876;42.656;23.292;2024-03-22T11:01:05;94518.72;;;11.74;34.34
9676;BME280;4876;42.656;23.292;2024-03-22T11:03:31;94526.66;;;11.67;34.59
9676;BME280;4876;42.656;23.292;2024-03-22T11:05:58;94519.56;;;11.76;34.29
9676;BME280;4876;42.656;23.292;2024-03-22T11:08:24;94519.91;;;11.82;34.80
9676;BME280;4876;42.656;23.292;2024-03-22T11:10:50;94518.84;;;12.24;33.04
9676;BME280;4876;42.656;23.292;2024-03-22T11:13:16;94525.69;;;11.86;33.90
9676;BME280;4876;42.656;23.292;2024-03-22T11:15:42;94507.22;;;11.79;34.39
9676;BME280;4876;42.656;23.292;2024-03-22T11:18:08;94509.22;;;12.02;32.52
9676;BME280;4876;42.656;23.292;2024-03-22T11:20:37;94507.72;;;11.52;34.19
9676;BME280;4876;42.656;23.292;2024-03-22T11:23:05;94506.34;;;11.88;34.15
9676;BME280;4876;42.656;23.292;2024-03-22T11:25:34;94506.84;;;11.85;33.86
9676;BME280;4876;42.656;23.292;2024-03-22T11:28:00;94509.13;;;12.00;33.67
9676;BME280;4876;42.656;23.292;2024-03-22T11:30:29;94502.03;;;12.22;33.63
9676;BME280;4876;42.656;23.292;2024-03-22T11:32:55;94496.34;;;12.20;33.16
9676;BME280;4876;42.656;23.292;2024-03-22T11:35:21;94496.34;;;12.20;33.04
9676;BME280;4876;42.656;23.292;2024-03-22T11:37:47;94490.47;;;12.14;34.08
9676;BME280;4876;42.656;23.292;2024-03-22T11:40:12;94496.13;;;12.16;33.28
9676;BME280;4876;42.656;23.292;2024-03-22T11:42:41;94495.03;;;11.73;32.72
9676;BME280;4876;42.656;23.292;2024-03-22T11:45:08;94498.25;;;11.92;33.09
9676;BME280;4876;42.656;23.292;2024-03-22T11:47:35;94505.13;;;12.03;32.77
9676;BME280;4876;42.656;23.292;2024-03-22T11:50:01;94493.00;;;12.10;31.95
9676;BME280;4876;42.656;23.292;2024-03-22T11:52:26;94476.47;;;12.37;31.78
9676;BME280;4876;42.656;23.292;2024-03-22T11:54:52;94473.56;;;12.35;32.25
9676;BME280;4876;42.656;23.292;2024-03-22T11:57:20;94474.19;;;12.72;32.21
9676;BME280;4876;42.656;23.292;2024-03-22T11:59:45;94459.66;;;13.13;30.82
9676;BME280;4876;42.656;23.292;2024-03-22T12:02:11;94460.06;;;13.07;30.17
9676;BME280;4876;42.656;23.292;2024-03-22T12:04:45;94459.13;;;13.03;30.51
9676;BME280;4876;42.656;23.292;2024-03-22T12:07:13;94464.31;;;12.44;31.70
9676;BME280;4876;42.656;23.292;2024-03-22T12:09:40;94461.03;;;12.22;31.72
9676;BME280;4876;42.656;23.292;2024-03-22T12:12:08;94442.56;;;12.41;32.03
9676;BME280;4876;42.656;23.292;2024-03-22T12:14:34;94449.19;;;12.47;32.66
9676;BME280;4876;42.656;23.292;2024-03-22T12:17:00;94443.19;;;12.14;32.30
9676;BME280;4876;42.656;23.292;2024-03-22T12:19:25;94457.28;;;11.93;33.15
9676;BME280;4876;42.656;23.292;2024-03-22T12:21:51;94441.00;;;12.12;32.82
9676;BME280;4876;42.656;23.292;2024-03-22T12:24:17;94446.16;;;12.43;32.60
9676;BME280;4876;42.656;23.292;2024-03-22T12:26:42;94440.19;;;12.35;32.18
9676;BME280;4876;42.656;23.292;2024-03-22T12:29:08;94426.69;;;12.43;32.14
9676;BME280;4876;42.656;23.292;2024-03-22T12:31:37;94437.28;;;12.33;31.69
9676;BME280;4876;42.656;23.292;2024-03-22T12:34:03;94435.81;;;11.82;31.57
9676;BME280;4876;42.656;23.292;2024-03-22T12:36:28;94432.41;;;11.83;31.90
9676;BME280;4876;42.656;23.292;2024-03-22T12:38:54;94428.84;;;12.31;32.06
9676;BME280;4876;42.656;23.292;2024-03-22T12:41:19;94425.50;;;12.21;30.98
9676;BME280;4876;42.656;23.292;2024-03-22T12:43:45;94424.94;;;12.11;31.02
9676;BME280;4876;42.656;23.292;2024-03-22T12:46:11;94428.09;;;12.31;30.26
9676;BME280;4876;42.656;23.292;2024-03-22T12:48:36;94423.59;;;12.37;31.08
9676;BME280;4876;42.656;23.292;2024-03-22T12:51:02;94415.31;;;12.51;31.27
9676;BME280;4876;42.656;23.292;2024-03-22T12:53:27;94423.41;;;12.85;30.07
9676;BME280;4876;42.656;23.292;2024-03-22T12:55:53;94411.88;;;13.05;30.84
9676;BME280;4876;42.656;23.292;2024-03-22T12:58:18;94409.91;;;12.80;30.07
9676;BME280;4876;42.656;23.292;2024-03-22T13:00:44;94405.78;;;12.81;30.78
9676;BME280;4876;42.656;23.292;2024-03-22T13:03:09;94409.44;;;13.11;30.71
9676;BME280;4876;42.656;23.292;2024-03-22T13:05:37;94410.69;;;13.35;29.63
9676;BME280;4876;42.656;23.292;2024-03-22T13:08:03;94411.91;;;13.32;28.84
9676;BME280;4876;42.656;23.292;2024-03-22T13:10:28;94399.81;;;13.41;29.78
9676;BME280;4876;42.656;23.292;2024-03-22T13:12:54;94400.44;;;13.67;29.01